createdAt,value
2023-01-08T00:01:56.768Z,99606.03
2023-01-08T00:04:23.637Z,99606.94
2023-01-08T00:06:50.477Z,99602.59
2023-01-08T00:09:17.298Z,99605.00
2023-01-08T00:11:44.622Z,99600.59
2023-01-08T00:14:12.049Z,99603.13
2023-01-08T00:16:38.952Z,99600.38
2023-01-08T00:19:05.777Z,99604.66
2023-01-08T00:21:33.321Z,99599.47
2023-01-08T00:24:00.149Z,99591.41
2023-01-08T00:26:26.948Z,99605.28
2023-01-08T00:28:53.792Z,99605.25
2023-01-08T00:31:20.702Z,99601.53
2023-01-08T00:33:47.497Z,99608.22
2023-01-08T00:36:17.114Z,99611.88
2023-01-08T00:38:45.229Z,99610.13
2023-01-08T00:41:14.428Z,99612.66
2023-01-08T00:43:41.350Z,99612.19
2023-01-08T00:46:08.733Z,99612.28
2023-01-08T00:48:38.933Z,99605.34
2023-01-08T00:51:07.935Z,99613.00
2023-01-08T00:53:35.157Z,99614.59
2023-01-08T00:56:03.474Z,99614.41
2023-01-08T00:58:31.175Z,99609.94
2023-01-08T01:00:58.207Z,99617.75
2023-01-08T01:03:25.432Z,99620.19
2023-01-08T01:06:02.946Z,99629.28
2023-01-08T01:08:29.793Z,99636.03
2023-01-08T01:10:56.829Z,99642.19
2023-01-08T01:13:23.757Z,99645.94
2023-01-08T01:16:00.891Z,99643.69
2023-01-08T01:18:28.212Z,99638.34
2023-01-08T01:20:55.253Z,99637.56
2023-01-08T01:23:22.118Z,99639.66
2023-01-08T01:25:49.054Z,99637.16
2023-01-08T01:28:16.415Z,99635.22
2023-01-08T01:30:43.379Z,99641.22
2023-01-08T01:33:10.280Z,99644.16
2023-01-08T01:35:37.157Z,99634.78
2023-01-08T01:38:04.026Z,99639.09
2023-01-08T01:40:30.901Z,99631.78
2023-01-08T01:42:57.708Z,99637.22
2023-01-08T01:45:27.926Z,99630.16
2023-01-08T01:48:04.028Z,99631.31
2023-01-08T01:50:40.235Z,99628.81
2023-01-08T01:53:17.397Z,99631.84
2023-01-08T01:55:44.671Z,99622.59
2023-01-08T01:58:23.691Z,99623.63
2023-01-08T02:03:29.755Z,99630.78
2023-01-08T02:06:18.213Z,99631.78
2023-01-08T02:08:59.901Z,99620.44
2023-01-08T02:11:29.483Z,99618.88
2023-01-08T02:14:05.617Z,99613.41
2023-01-08T02:16:44.980Z,99622.94
2023-01-08T02:19:38.213Z,99610.69
2023-01-08T02:22:35.169Z,99616.03
2023-01-08T02:25:18.731Z,99612.78
2023-01-08T02:27:51.356Z,99596.78
2023-01-08T02:30:19.215Z,99610.31
2023-01-08T02:32:46.187Z,99616.31
2023-01-08T02:35:13.313Z,99597.00
2023-01-08T02:37:40.898Z,99602.94
2023-01-08T02:40:15.377Z,99606.63
2023-01-08T02:42:52.950Z,99615.94
2023-01-08T02:45:47.540Z,99615.34
2023-01-08T02:48:25.497Z,99618.84
2023-01-08T02:50:55.817Z,99610.06
2023-01-08T02:53:29.130Z,99613.72
2023-01-08T02:56:00.545Z,99610.19
2023-01-08T02:58:32.361Z,99610.47
2023-01-08T03:01:03.239Z,99611.41
2023-01-08T03:03:31.848Z,99613.09
2023-01-08T03:06:03.529Z,99617.41
2023-01-08T03:08:32.200Z,99613.69
2023-01-08T03:11:12.004Z,99623.72
2023-01-08T03:14:01.339Z,99619.75
2023-01-08T03:16:38.338Z,99629.19
2023-01-08T03:19:13.407Z,99622.75
2023-01-08T03:21:44.848Z,99622.03
2023-01-08T03:24:15.431Z,99622.63
2023-01-08T03:26:44.600Z,99617.94
2023-01-08T03:29:18.703Z,99629.19
2023-01-08T03:31:48.617Z,99625.06
2023-01-08T03:34:16.737Z,99627.66
2023-01-08T03:36:48.293Z,99625.28
2023-01-08T03:39:28.297Z,99611.41
2023-01-08T03:42:01.121Z,99616.25
2023-01-08T03:44:28.398Z,99615.88
2023-01-08T03:46:57.448Z,99624.22
2023-01-08T03:49:29.082Z,99621.00
2023-01-08T03:51:56.616Z,99609.50
2023-01-08T03:54:31.876Z,99615.69
2023-01-08T03:56:58.877Z,99611.28
2023-01-08T03:59:26.065Z,99611.41
2023-01-08T04:01:53.188Z,99611.81
2023-01-08T04:04:20.435Z,99617.84
2023-01-08T04:06:47.415Z,99617.59
2023-01-08T04:09:14.396Z,99609.41
2023-01-08T04:11:41.495Z,99608.38
2023-01-08T04:14:08.656Z,99612.69
2023-01-08T04:16:35.658Z,99614.06
2023-01-08T04:19:02.744Z,99600.91
2023-01-08T04:21:29.672Z,99600.16
2023-01-08T04:23:57.597Z,99608.19
2023-01-08T04:26:24.619Z,99609.84
2023-01-08T04:28:51.518Z,99608.81
2023-01-08T04:31:18.555Z,99612.13
2023-01-08T04:33:45.682Z,99608.59
2023-01-08T04:36:12.883Z,99614.84
2023-01-08T04:38:39.911Z,99606.06
2023-01-08T04:41:06.908Z,99614.66
2023-01-08T04:43:34.654Z,99622.53
2023-01-08T04:46:03.589Z,99625.75
2023-01-08T04:48:31.355Z,99630.75
2023-01-08T04:51:00.516Z,99632.56
2023-01-08T04:53:28.519Z,99634.94
2023-01-08T04:55:55.523Z,99631.38
2023-01-08T04:58:22.551Z,99622.88
2023-01-08T05:00:49.442Z,99627.34
2023-01-08T05:03:16.528Z,99634.31
2023-01-08T05:05:43.730Z,99631.50
2023-01-08T05:08:10.606Z,99640.25
2023-01-08T05:10:37.426Z,99637.81
2023-01-08T05:13:05.759Z,99634.16
2023-01-08T05:15:33.615Z,99626.63
2023-01-08T05:18:02.602Z,99627.16
2023-01-08T05:20:29.929Z,99632.19
2023-01-08T05:22:58.767Z,99631.47
2023-01-08T05:25:26.029Z,99629.09
2023-01-08T05:27:53.676Z,99632.84
2023-01-08T05:30:20.776Z,99632.56
2023-01-08T05:32:47.809Z,99638.25
2023-01-08T05:35:14.924Z,99639.63
2023-01-08T05:37:42.051Z,99647.88
2023-01-08T05:40:09.595Z,99645.03
2023-01-08T05:42:55.160Z,99646.34
2023-01-08T05:45:22.060Z,99638.00
2023-01-08T05:47:48.964Z,99643.44
2023-01-08T05:50:16.082Z,99649.63
2023-01-08T05:52:44.626Z,99647.44
2023-01-08T05:55:12.371Z,99646.78
2023-01-08T05:57:39.602Z,99652.16
2023-01-08T06:00:08.597Z,99649.78
2023-01-08T06:02:35.677Z,99657.31
2023-01-08T06:05:02.735Z,99653.41
2023-01-08T06:07:30.029Z,99654.50
2023-01-08T06:09:57.098Z,99656.47
2023-01-08T06:12:24.047Z,99651.38
2023-01-08T06:14:50.981Z,99652.44
2023-01-08T06:17:17.926Z,99657.22
2023-01-08T06:19:46.739Z,99651.81
2023-01-08T06:22:13.620Z,99648.50
2023-01-08T06:24:42.028Z,99659.47
2023-01-08T06:27:09.309Z,99659.91
2023-01-08T06:29:36.407Z,99653.53
2023-01-08T06:32:03.431Z,99653.75
2023-01-08T06:34:30.535Z,99658.47
2023-01-08T06:36:57.376Z,99669.97
2023-01-08T06:39:24.329Z,99671.34
2023-01-08T06:41:51.534Z,99674.53
2023-01-08T06:44:18.552Z,99666.97
2023-01-08T06:46:45.541Z,99671.22
2023-01-08T06:49:13.172Z,99668.00
2023-01-08T06:51:40.078Z,99686.91
2023-01-08T06:54:06.875Z,99685.56
2023-01-08T06:56:45.386Z,99674.59
2023-01-08T06:59:19.460Z,99685.13
2023-01-08T07:01:46.446Z,99676.06
2023-01-08T07:04:32.034Z,99681.75
2023-01-08T07:06:59.055Z,99696.53
2023-01-08T07:09:25.931Z,99687.97
2023-01-08T07:11:55.239Z,99690.25
2023-01-08T07:14:22.347Z,99678.09
2023-01-08T07:16:49.308Z,99685.75
2023-01-08T07:19:16.203Z,99685.28
2023-01-08T07:21:43.187Z,99681.75
2023-01-08T07:24:10.180Z,99680.06
2023-01-08T07:26:37.287Z,99683.44
2023-01-08T07:29:04.208Z,99687.56
2023-01-08T07:31:31.870Z,99697.06
2023-01-08T07:33:59.061Z,99692.41
2023-01-08T07:36:26.157Z,99687.28
2023-01-08T07:38:53.543Z,99698.09
2023-01-08T07:41:20.358Z,99683.72
2023-01-08T07:43:48.678Z,99692.88
2023-01-08T07:46:17.018Z,99693.13
2023-01-08T07:48:43.878Z,99687.00
2023-01-08T07:51:11.654Z,99678.94
2023-01-08T07:53:38.796Z,99681.75
2023-01-08T07:56:09.193Z,99679.75
2023-01-08T07:58:37.172Z,99685.53
2023-01-08T08:01:06.737Z,99678.66
2023-01-08T08:03:52.300Z,99681.91
2023-01-08T08:06:19.355Z,99680.31
2023-01-08T08:08:46.208Z,99666.16
2023-01-08T08:11:13.076Z,99665.59
2023-01-08T08:13:44.885Z,99668.91
2023-01-08T08:16:12.979Z,99684.44
2023-01-08T08:18:59.158Z,99676.22
2023-01-08T08:21:26.187Z,99681.34
2023-01-08T08:23:53.125Z,99674.69
2023-01-08T08:26:20.040Z,99678.47
2023-01-08T08:28:46.943Z,99682.16
2023-01-08T08:31:13.887Z,99679.81
2023-01-08T08:33:40.770Z,99688.69
2023-01-08T08:36:08.506Z,99688.28
2023-01-08T08:38:37.639Z,99692.69
2023-01-08T08:41:04.754Z,99698.03
2023-01-08T08:43:31.545Z,99698.22
2023-01-08T08:45:58.403Z,99698.09
2023-01-08T08:48:25.388Z,99688.47
2023-01-08T08:50:52.395Z,99688.91
2023-01-08T08:53:19.351Z,99688.38
2023-01-08T08:55:46.200Z,99685.34
2023-01-08T08:58:13.629Z,99680.41
2023-01-08T09:00:43.077Z,99692.13
2023-01-08T09:03:15.139Z,99695.69
2023-01-08T09:05:45.596Z,99686.13
2023-01-08T09:08:13.113Z,99690.53
2023-01-08T09:10:42.633Z,99684.44
2023-01-08T09:13:10.000Z,99686.94
2023-01-08T09:15:38.167Z,99690.50
2023-01-08T09:18:05.499Z,99686.97
2023-01-08T09:20:32.719Z,99672.97
2023-01-08T09:23:03.499Z,99685.88
2023-01-08T09:25:31.103Z,99676.41
2023-01-08T09:28:12.193Z,99674.53
2023-01-08T09:30:40.851Z,99653.59
2023-01-08T09:33:08.006Z,99665.44
2023-01-08T09:35:35.039Z,99667.44
2023-01-08T09:38:02.145Z,99655.63
2023-01-08T09:40:35.491Z,99661.69
2023-01-08T09:43:06.266Z,99659.00
2023-01-08T09:45:37.566Z,99644.88
2023-01-08T09:48:12.661Z,99642.22
2023-01-08T09:50:39.696Z,99636.19
2023-01-08T09:53:13.495Z,99645.03
2023-01-08T09:55:40.698Z,99638.09
2023-01-08T09:58:24.693Z,99625.69
2023-01-08T10:00:52.446Z,99626.81
2023-01-08T10:03:19.360Z,99618.44
2023-01-08T10:05:46.263Z,99615.06
2023-01-08T10:08:14.957Z,99608.19
2023-01-08T10:10:43.504Z,99599.69
2023-01-08T10:13:13.113Z,99605.59
2023-01-08T10:15:41.640Z,99599.28
2023-01-08T10:18:14.166Z,99594.84
2023-01-08T10:20:59.756Z,99598.56
2023-01-08T10:23:26.876Z,99589.75
2023-01-08T10:26:00.064Z,99596.81
2023-01-08T10:28:35.407Z,99582.66
2023-01-08T10:31:09.293Z,99575.72
2023-01-08T10:33:41.385Z,99580.34
2023-01-08T10:36:15.365Z,99572.66
2023-01-08T10:39:04.053Z,99562.78
2023-01-08T10:41:31.666Z,99560.72
2023-01-08T10:44:14.762Z,99559.16
2023-01-08T10:46:45.275Z,99545.94
2023-01-08T10:49:21.436Z,99557.72
2023-01-08T10:51:53.483Z,99547.84
2023-01-08T10:54:40.797Z,99534.72
2023-01-08T10:57:27.247Z,99525.34
2023-01-08T10:59:55.438Z,99527.34
2023-01-08T11:02:38.427Z,99525.06
2023-01-08T11:05:08.101Z,99526.97
2023-01-08T11:07:40.254Z,99516.47
2023-01-08T11:10:23.913Z,99511.16
2023-01-08T11:12:59.915Z,99501.44
2023-01-08T11:15:39.033Z,99507.56
2023-01-08T11:18:12.170Z,99498.72
2023-01-08T11:20:39.740Z,99506.47
2023-01-08T11:23:23.358Z,99489.16
2023-01-08T11:25:57.390Z,99492.63
2023-01-08T11:28:38.335Z,99487.56
2023-01-08T11:31:21.748Z,99489.44
2023-01-08T11:33:57.176Z,99476.44
2023-01-08T11:36:34.846Z,99481.75
2023-01-08T11:39:03.021Z,99477.31
2023-01-08T11:42:04.126Z,99472.03
2023-01-08T11:45:03.894Z,99466.13
2023-01-08T11:47:51.153Z,99472.25
2023-01-08T11:50:35.619Z,99476.59
2023-01-08T11:53:24.101Z,99460.81
2023-01-08T11:56:21.662Z,99462.69
2023-01-08T11:59:24.912Z,99448.69
2023-01-08T12:02:20.803Z,99450.50
2023-01-08T12:05:18.289Z,99447.75
2023-01-08T12:07:51.032Z,99438.31
2023-01-08T12:10:27.994Z,99437.53
2023-01-08T12:13:17.825Z,99441.22
2023-01-08T12:16:04.863Z,99435.16
2023-01-08T12:18:47.068Z,99425.66
2023-01-08T12:21:24.481Z,99429.03
2023-01-08T12:24:12.321Z,99419.56
2023-01-08T12:26:54.600Z,99418.78
2023-01-08T12:29:38.701Z,99410.88
2023-01-08T12:32:51.953Z,99418.78
2023-01-08T12:35:29.604Z,99417.81
2023-01-08T12:38:04.921Z,99417.88
2023-01-08T12:40:55.621Z,99409.19
2023-01-08T12:43:47.057Z,99393.53
2023-01-08T12:46:18.495Z,99398.72
2023-01-08T12:48:48.335Z,99405.81
2023-01-08T12:51:26.224Z,99402.28
2023-01-08T12:54:11.536Z,99403.22
2023-01-08T12:56:52.410Z,99398.00
2023-01-08T12:59:45.345Z,99404.09
2023-01-08T13:02:33.671Z,99398.88
2023-01-08T13:05:20.291Z,99392.75
2023-01-08T13:07:51.435Z,99385.84
2023-01-08T13:10:50.869Z,99389.31
2023-01-08T13:13:31.116Z,99390.16
2023-01-08T13:16:15.716Z,99387.56
2023-01-08T13:19:04.624Z,99393.66
2023-01-08T13:21:41.997Z,99389.34
2023-01-08T13:24:29.820Z,99381.50
2023-01-08T13:27:09.214Z,99386.69
2023-01-08T13:29:45.578Z,99381.50
2023-01-08T13:32:47.946Z,99373.66
2023-01-08T13:35:33.347Z,99371.94
2023-01-08T13:38:17.525Z,99364.97
2023-01-08T13:40:44.305Z,99369.31
2023-01-08T13:43:15.987Z,99368.47
2023-01-08T13:45:43.983Z,99358.03
2023-01-08T13:48:25.427Z,99365.84
2023-01-08T13:50:52.747Z,99363.25
2023-01-08T13:53:20.862Z,99364.09
2023-01-08T13:56:08.931Z,99358.00
2023-01-08T13:58:45.754Z,99372.81
2023-01-08T14:01:13.919Z,99367.59
2023-01-08T14:03:46.788Z,99364.09
2023-01-08T14:06:13.559Z,99363.22
2023-01-08T14:08:56.845Z,99367.59
2023-01-08T14:11:28.598Z,99364.97
2023-01-08T14:13:56.431Z,99350.19
2023-01-08T14:16:23.964Z,99358.81
2023-01-08T14:18:52.039Z,99364.75
2023-01-08T14:21:23.334Z,99362.97
2023-01-08T14:23:52.077Z,99361.28
2023-01-08T14:26:35.770Z,99362.06
2023-01-08T14:29:12.217Z,99356.03
2023-01-08T14:31:47.333Z,99344.66
2023-01-08T14:34:15.646Z,99355.06
2023-01-08T14:36:43.296Z,99359.34
2023-01-08T14:39:24.780Z,99357.47
2023-01-08T14:42:13.432Z,99354.06
2023-01-08T14:44:42.600Z,99344.44
2023-01-08T14:47:20.034Z,99353.06
2023-01-08T14:49:53.343Z,99354.75
2023-01-08T14:52:21.352Z,99346.06
2023-01-08T14:54:53.426Z,99346.84
2023-01-08T14:57:22.519Z,99344.28
2023-01-08T14:59:57.045Z,99356.41
2023-01-08T15:02:31.879Z,99345.97
2023-01-08T15:05:04.457Z,99339.69
2023-01-08T15:07:31.886Z,99348.22
2023-01-08T15:10:03.956Z,99349.81
2023-01-08T15:12:32.527Z,99344.28
2023-01-08T15:15:32.520Z,99354.69
2023-01-08T15:17:59.639Z,99354.59
2023-01-08T15:20:33.689Z,99362.38
2023-01-08T15:23:00.928Z,99357.00
2023-01-08T15:25:30.086Z,99366.44
2023-01-08T15:28:03.235Z,99364.59
2023-01-08T15:30:40.036Z,99365.53
2023-01-08T15:33:29.162Z,99355.88
2023-01-08T15:35:56.982Z,99374.97
2023-01-08T15:38:24.181Z,99370.66
2023-01-08T15:40:53.550Z,99382.69
2023-01-08T15:43:40.005Z,99383.38
2023-01-08T15:46:26.689Z,99382.38
2023-01-08T15:48:53.736Z,99373.78
2023-01-08T15:51:20.575Z,99370.97
2023-01-08T15:53:47.595Z,99375.97
2023-01-08T15:56:14.429Z,99371.63
2023-01-08T15:58:41.330Z,99374.22
2023-01-08T16:01:28.032Z,99375.53
2023-01-08T16:03:54.971Z,99368.25
2023-01-08T16:06:21.872Z,99356.72
2023-01-08T16:08:49.859Z,99352.13
2023-01-08T16:11:20.167Z,99359.88
2023-01-08T16:13:47.254Z,99348.47
2023-01-08T16:16:16.392Z,99350.22
2023-01-08T16:19:01.871Z,99355.31
2023-01-08T16:21:28.814Z,99350.00
2023-01-08T16:23:55.778Z,99355.72
2023-01-08T16:26:22.605Z,99354.22
2023-01-08T16:28:49.469Z,99357.19
2023-01-08T16:31:16.452Z,99357.09
2023-01-08T16:33:43.267Z,99342.25
2023-01-08T16:36:10.774Z,99348.19
2023-01-08T16:38:40.218Z,99349.84
2023-01-08T16:41:07.081Z,99352.28
2023-01-08T16:43:41.483Z,99357.81
2023-01-08T16:46:18.167Z,99353.28
2023-01-08T16:48:46.886Z,99360.19
2023-01-08T16:51:13.753Z,99355.19
2023-01-08T16:53:41.073Z,99357.72
2023-01-08T16:56:08.735Z,99361.88
2023-01-08T16:58:36.670Z,99374.63
2023-01-08T17:01:08.814Z,99367.69
2023-01-08T17:03:36.068Z,99376.06
2023-01-08T17:06:10.823Z,99362.75
2023-01-08T17:08:40.370Z,99361.53
2023-01-08T17:11:32.979Z,99358.28
2023-01-08T17:14:00.255Z,99361.84
2023-01-08T17:16:27.262Z,99364.19
2023-01-08T17:18:54.117Z,99373.47
2023-01-08T17:21:21.136Z,99374.13
2023-01-08T17:23:50.605Z,99365.38
2023-01-08T17:26:18.276Z,99366.59
2023-01-08T17:28:46.743Z,99366.13
2023-01-08T17:31:18.551Z,99363.88
2023-01-08T17:33:50.433Z,99358.09
2023-01-08T17:36:20.720Z,99372.53
2023-01-08T17:38:49.851Z,99377.75
2023-01-08T17:41:36.013Z,99374.78
2023-01-08T17:44:06.853Z,99385.75
2023-01-08T17:46:38.330Z,99386.78
2023-01-08T17:49:05.883Z,99378.13
2023-01-08T17:51:33.641Z,99385.53
2023-01-08T17:54:01.406Z,99385.72
2023-01-08T17:56:28.278Z,99383.22
2023-01-08T17:58:55.212Z,99399.81
2023-01-08T18:01:22.322Z,99397.53
2023-01-08T18:03:54.587Z,99396.69
2023-01-08T18:06:22.615Z,99390.97
2023-01-08T18:08:49.629Z,99403.88
2023-01-08T18:11:34.831Z,99402.13
2023-01-08T18:14:02.640Z,99409.47
2023-01-08T18:16:31.455Z,99394.38
2023-01-08T18:18:59.755Z,99397.03
2023-01-08T18:21:27.707Z,99403.66
2023-01-08T18:23:54.609Z,99387.53
2023-01-08T18:26:22.653Z,99389.56
2023-01-08T18:28:52.172Z,99389.41
2023-01-08T18:31:19.337Z,99397.38
2023-01-08T18:33:49.159Z,99388.69
2023-01-08T18:36:16.059Z,99395.25
2023-01-08T18:38:44.086Z,99380.00
2023-01-08T18:41:33.558Z,99397.59
2023-01-08T18:44:01.568Z,99395.41
2023-01-08T18:46:28.497Z,99388.94
2023-01-08T18:48:55.620Z,99389.00
2023-01-08T18:51:22.868Z,99400.38
2023-01-08T18:53:50.103Z,99388.31
2023-01-08T18:56:31.617Z,99391.56
2023-01-08T18:58:58.766Z,99390.22
2023-01-08T19:01:26.642Z,99391.13
2023-01-08T19:03:54.040Z,99389.78
2023-01-08T19:06:21.183Z,99384.94
2023-01-08T19:08:48.355Z,99388.28
2023-01-08T19:11:15.901Z,99382.78
2023-01-08T19:13:42.865Z,99385.75
2023-01-08T19:16:13.979Z,99372.03
2023-01-08T19:18:41.421Z,99390.06
2023-01-08T19:21:10.329Z,99380.44
2023-01-08T19:23:38.321Z,99383.50
2023-01-08T19:26:06.992Z,99385.59
2023-01-08T19:28:34.195Z,99389.53
2023-01-08T19:31:03.851Z,99389.53
2023-01-08T19:33:31.242Z,99382.38
2023-01-08T19:36:11.342Z,99394.69
2023-01-08T19:38:40.601Z,99384.13
2023-01-08T19:41:27.108Z,99397.75
2023-01-08T19:43:55.792Z,99403.34
2023-01-08T19:46:23.704Z,99394.59
2023-01-08T19:48:51.480Z,99394.03
2023-01-08T19:51:19.301Z,99384.25
2023-01-08T19:53:46.489Z,99392.22
2023-01-08T19:56:15.203Z,99383.72
2023-01-08T19:58:42.907Z,99394.47
2023-01-08T20:01:15.794Z,99386.88
2023-01-08T20:03:43.939Z,99389.53
2023-01-08T20:06:20.060Z,99398.13
2023-01-08T20:08:48.221Z,99390.03
2023-01-08T20:11:16.937Z,99397.31
2023-01-08T20:13:47.304Z,99402.88
2023-01-08T20:16:17.613Z,99394.38
2023-01-08T20:18:45.576Z,99394.63
2023-01-08T20:21:18.688Z,99393.88
2023-01-08T20:23:46.020Z,99393.91
2023-01-08T20:26:18.327Z,99391.44
2023-01-08T20:28:50.853Z,99384.53
2023-01-08T20:31:19.748Z,99378.41
2023-01-08T20:33:47.718Z,99368.16
2023-01-08T20:36:17.617Z,99374.28
2023-01-08T20:38:46.316Z,99350.88
2023-01-08T20:41:13.593Z,99363.66
2023-01-08T20:43:41.831Z,99352.38
2023-01-08T20:46:12.693Z,99349.56
2023-01-08T20:48:46.859Z,99351.97
2023-01-08T20:51:14.497Z,99352.69
2023-01-08T20:53:41.954Z,99352.38
2023-01-08T20:56:12.721Z,99345.16
2023-01-08T20:58:43.698Z,99357.28
2023-01-08T21:01:22.724Z,99345.09
2023-01-08T21:03:53.898Z,99343.44
2023-01-08T21:06:32.176Z,99347.03
2023-01-08T21:09:03.487Z,99335.59
2023-01-08T21:11:31.573Z,99347.53
2023-01-08T21:13:58.528Z,99349.78
2023-01-08T21:16:30.042Z,99347.69
2023-01-08T21:18:58.338Z,99351.31
2023-01-08T21:21:33.247Z,99348.94
2023-01-08T21:24:05.149Z,99341.16
2023-01-08T21:26:37.275Z,99343.56
2023-01-08T21:29:06.618Z,99340.31
2023-01-08T21:31:35.198Z,99328.84
2023-01-08T21:34:03.905Z,99341.81
2023-01-08T21:36:32.226Z,99331.34
2023-01-08T21:39:01.190Z,99340.75
2023-01-08T21:41:48.039Z,99334.66
2023-01-08T21:44:41.838Z,99334.66
2023-01-08T21:47:14.772Z,99331.34
2023-01-08T21:49:42.000Z,99330.19
2023-01-08T21:52:27.820Z,99336.53
2023-01-08T21:54:54.889Z,99334.94
2023-01-08T21:57:22.022Z,99327.25
2023-01-08T21:59:50.596Z,99330.59
2023-01-08T22:02:21.054Z,99329.78
2023-01-08T22:04:51.143Z,99316.94
2023-01-08T22:07:20.942Z,99323.84
2023-01-08T22:09:48.186Z,99315.09
2023-01-08T22:12:20.227Z,99317.47
2023-01-08T22:14:47.269Z,99319.38
2023-01-08T22:17:14.464Z,99327.38
2023-01-08T22:19:41.878Z,99325.88
2023-01-08T22:22:11.008Z,99319.63
2023-01-08T22:24:39.104Z,99320.31
2023-01-08T22:27:08.086Z,99302.72
2023-01-08T22:29:36.625Z,99307.00
2023-01-08T22:32:04.983Z,99306.88
2023-01-08T22:34:33.426Z,99307.00
2023-01-08T22:37:00.698Z,99306.84
2023-01-08T22:39:29.244Z,99303.53
2023-01-08T22:41:57.899Z,99297.47
2023-01-08T22:44:25.269Z,99294.69
2023-01-08T22:46:52.481Z,99294.53
2023-01-08T22:49:19.660Z,99287.63
2023-01-08T22:51:47.022Z,99291.63
2023-01-08T22:54:14.451Z,99290.56
2023-01-08T22:56:41.426Z,99282.81
2023-01-08T22:59:08.611Z,99278.59
2023-01-08T23:01:37.380Z,99279.50
2023-01-08T23:04:07.916Z,99281.75
2023-01-08T23:06:35.143Z,99274.09
2023-01-08T23:09:02.086Z,99270.44
2023-01-08T23:11:31.338Z,99264.06
2023-01-08T23:14:00.552Z,99268.25
2023-01-08T23:16:28.087Z,99264.84
2023-01-08T23:19:07.504Z,99263.03
2023-01-08T23:21:36.577Z,99260.72
2023-01-08T23:24:04.674Z,99264.81
2023-01-08T23:26:50.526Z,99262.88
2023-01-08T23:29:19.011Z,99259.50
2023-01-08T23:31:46.228Z,99254.44
2023-01-08T23:34:16.680Z,99251.88
2023-01-08T23:36:44.852Z,99246.91
2023-01-08T23:39:12.402Z,99244.91
2023-01-08T23:41:39.778Z,99238.81
2023-01-08T23:44:13.483Z,99247.09
2023-01-08T23:46:43.904Z,99240.22
2023-01-08T23:49:12.564Z,99231.25
2023-01-08T23:51:43.034Z,99233.13
2023-01-08T23:54:11.701Z,99222.97
2023-01-08T23:56:39.391Z,99226.13
2023-01-08T23:59:07.111Z,99226.72
